sensor_id;sensor_type;location;lat;lon;timestamp;temperature;humidity
38938;DHT22;24727;51.974;20.868;2023-07-08T00:00:53;14.70;1.00
38938;DHT22;24727;51.974;20.868;2023-07-08T00:03:20;14.80;1.00
38938;DHT22;24727;51.974;20.868;2023-07-08T00:05:48;14.90;1.00
38938;DHT22;24727;51.974;20.868;2023-07-08T00:08:17;14.80;1.00
38938;DHT22;24727;51.974;20.868;2023-07-08T00:10:43;14.80;1.00
38938;DHT22;24727;51.974;20.868;2023-07-08T00:13:10;14.80;1.00
38938;DHT22;24727;51.974;20.868;2023-07-08T00:15:37;14.80;1.00
38938;DHT22;24727;51.974;20.868;2023-07-08T00:18:14;14.90;1.00
38938;DHT22;24727;51.974;20.868;2023-07-08T00:20:47;14.80;1.00
38938;DHT22;24727;51.974;20.868;2023-07-08T00:23:14;14.80;1.00
38938;DHT22;24727;51.974;20.868;2023-07-08T00:25:42;14.80;1.00
38938;DHT22;24727;51.974;20.868;2023-07-08T00:28:12;14.80;1.00
38938;DHT22;24727;51.974;20.868;2023-07-08T00:30:40;14.80;1.00
38938;DHT22;24727;51.974;20.868;2023-07-08T00:33:08;14.70;1.00
38938;DHT22;24727;51.974;20.868;2023-07-08T00:35:41;14.70;1.00
38938;DHT22;24727;51.974;20.868;2023-07-08T00:40:51;14.60;1.00
38938;DHT22;24727;51.974;20.868;2023-07-08T00:43:21;14.40;1.00
38938;DHT22;24727;51.974;20.868;2023-07-08T00:45:51;14.40;1.00
38938;DHT22;24727;51.974;20.868;2023-07-08T00:48:34;14.40;1.00
38938;DHT22;24727;51.974;20.868;2023-07-08T00:51:01;14.40;1.00
38938;DHT22;24727;51.974;20.868;2023-07-08T00:56:12;14.30;1.00
38938;DHT22;24727;51.974;20.868;2023-07-08T00:58:47;14.40;1.00
38938;DHT22;24727;51.974;20.868;2023-07-08T01:01:14;14.30;1.00
38938;DHT22;24727;51.974;20.868;2023-07-08T01:03:54;14.20;1.00
38938;DHT22;24727;51.974;20.868;2023-07-08T01:06:24;14.10;1.00
38938;DHT22;24727;51.974;20.868;2023-07-08T01:09:01;14.10;1.00
38938;DHT22;24727;51.974;20.868;2023-07-08T01:11:29;14.10;1.00
38938;DHT22;24727;51.974;20.868;2023-07-08T01:13:56;14.00;1.00
38938;DHT22;24727;51.974;20.868;2023-07-08T01:16:22;13.80;1.00
38938;DHT22;24727;51.974;20.868;2023-07-08T01:18:51;13.40;1.00
38938;DHT22;24727;51.974;20.868;2023-07-08T01:21:36;13.30;1.00
38938;DHT22;24727;51.974;20.868;2023-07-08T01:24:08;13.00;1.00
38938;DHT22;24727;51.974;20.868;2023-07-08T01:26:38;13.10;1.00
38938;DHT22;24727;51.974;20.868;2023-07-08T01:29:05;13.20;1.00
38938;DHT22;24727;51.974;20.868;2023-07-08T01:31:34;13.40;1.00
38938;DHT22;24727;51.974;20.868;2023-07-08T01:34:01;13.50;1.00
38938;DHT22;24727;51.974;20.868;2023-07-08T01:36:31;13.60;1.00
38938;DHT22;24727;51.974;20.868;2023-07-08T01:38:59;13.60;1.00
38938;DHT22;24727;51.974;20.868;2023-07-08T01:41:25;13.50;1.00
38938;DHT22;24727;51.974;20.868;2023-07-08T01:43:51;13.50;1.00
38938;DHT22;24727;51.974;20.868;2023-07-08T01:46:23;13.50;1.00
38938;DHT22;24727;51.974;20.868;2023-07-08T01:48:58;13.60;1.00
38938;DHT22;24727;51.974;20.868;2023-07-08T01:51:26;13.60;1.00
38938;DHT22;24727;51.974;20.868;2023-07-08T01:53:53;13.60;1.00
38938;DHT22;24727;51.974;20.868;2023-07-08T01:56:19;13.50;1.00
38938;DHT22;24727;51.974;20.868;2023-07-08T01:58:45;13.30;1.00
38938;DHT22;24727;51.974;20.868;2023-07-08T02:01:11;13.20;1.00
38938;DHT22;24727;51.974;20.868;2023-07-08T02:03:38;13.00;1.00
38938;DHT22;24727;51.974;20.868;2023-07-08T02:06:04;13.00;1.00
38938;DHT22;24727;51.974;20.868;2023-07-08T02:08:30;13.00;1.00
38938;DHT22;24727;51.974;20.868;2023-07-08T02:10:58;13.00;1.00
38938;DHT22;24727;51.974;20.868;2023-07-08T02:13:25;13.00;1.00
38938;DHT22;24727;51.974;20.868;2023-07-08T02:15:51;13.00;1.00
38938;DHT22;24727;51.974;20.868;2023-07-08T02:18:17;13.00;1.00
38938;DHT22;24727;51.974;20.868;2023-07-08T02:20:46;13.00;1.00
38938;DHT22;24727;51.974;20.868;2023-07-08T02:23:13;12.80;1.00
38938;DHT22;24727;51.974;20.868;2023-07-08T02:25:39;12.80;1.00
38938;DHT22;24727;51.974;20.868;2023-07-08T02:28:05;12.60;1.00
38938;DHT22;24727;51.974;20.868;2023-07-08T02:30:31;12.60;1.00
38938;DHT22;24727;51.974;20.868;2023-07-08T02:32:57;12.60;1.00
38938;DHT22;24727;51.974;20.868;2023-07-08T02:35:28;12.70;1.00
38938;DHT22;24727;51.974;20.868;2023-07-08T02:37:56;12.70;1.00
38938;DHT22;24727;51.974;20.868;2023-07-08T02:40:24;12.80;1.00
38938;DHT22;24727;51.974;20.868;2023-07-08T02:42:51;12.80;1.00
38938;DHT22;24727;51.974;20.868;2023-07-08T02:45:18;12.80;1.00
38938;DHT22;24727;51.974;20.868;2023-07-08T02:47:45;12.90;1.00
38938;DHT22;24727;51.974;20.868;2023-07-08T02:50:17;12.90;1.00
38938;DHT22;24727;51.974;20.868;2023-07-08T02:52:44;12.90;1.00
38938;DHT22;24727;51.974;20.868;2023-07-08T02:55:10;12.90;1.00
38938;DHT22;24727;51.974;20.868;2023-07-08T02:57:36;12.80;1.00
38938;DHT22;24727;51.974;20.868;2023-07-08T03:00:03;12.90;1.00
38938;DHT22;24727;51.974;20.868;2023-07-08T03:02:33;12.80;1.00
38938;DHT22;24727;51.974;20.868;2023-07-08T03:05:00;12.80;1.00
38938;DHT22;24727;51.974;20.868;2023-07-08T03:07:26;12.80;1.00
38938;DHT22;24727;51.974;20.868;2023-07-08T03:09:54;12.90;1.00
38938;DHT22;24727;51.974;20.868;2023-07-08T03:12:19;12.90;1.00
38938;DHT22;24727;51.974;20.868;2023-07-08T03:14:45;13.00;1.00
38938;DHT22;24727;51.974;20.868;2023-07-08T03:17:11;13.00;1.00
38938;DHT22;24727;51.974;20.868;2023-07-08T03:19:43;13.00;1.00
38938;DHT22;24727;51.974;20.868;2023-07-08T03:22:10;13.00;1.00
38938;DHT22;24727;51.974;20.868;2023-07-08T03:24:37;13.00;1.00
38938;DHT22;24727;51.974;20.868;2023-07-08T03:27:15;13.00;1.00
38938;DHT22;24727;51.974;20.868;2023-07-08T03:29:42;13.10;1.00
38938;DHT22;24727;51.974;20.868;2023-07-08T03:32:11;13.20;1.00
38938;DHT22;24727;51.974;20.868;2023-07-08T03:34:38;13.20;1.00
38938;DHT22;24727;51.974;20.868;2023-07-08T03:37:04;13.20;1.00
38938;DHT22;24727;51.974;20.868;2023-07-08T03:39:30;13.30;1.00
38938;DHT22;24727;51.974;20.868;2023-07-08T03:41:57;13.30;1.00
38938;DHT22;24727;51.974;20.868;2023-07-08T03:44:23;13.40;1.00
38938;DHT22;24727;51.974;20.868;2023-07-08T03:46:49;13.50;1.00
38938;DHT22;24727;51.974;20.868;2023-07-08T03:49:20;13.60;1.00
38938;DHT22;24727;51.974;20.868;2023-07-08T03:51:52;13.70;1.00
38938;DHT22;24727;51.974;20.868;2023-07-08T03:54:22;13.80;1.00
38938;DHT22;24727;51.974;20.868;2023-07-08T03:56:48;14.00;1.00
38938;DHT22;24727;51.974;20.868;2023-07-08T03:59:17;14.00;1.00
38938;DHT22;24727;51.974;20.868;2023-07-08T04:01:43;14.20;1.00
38938;DHT22;24727;51.974;20.868;2023-07-08T04:04:12;14.30;1.00
38938;DHT22;24727;51.974;20.868;2023-07-08T04:06:38;14.40;1.00
38938;DHT22;24727;51.974;20.868;2023-07-08T04:09:04;14.50;1.00
38938;DHT22;24727;51.974;20.868;2023-07-08T04:11:30;14.60;1.00
38938;DHT22;24727;51.974;20.868;2023-07-08T04:13:56;14.70;1.00
38938;DHT22;24727;51.974;20.868;2023-07-08T04:16:25;14.90;1.00
38938;DHT22;24727;51.974;20.868;2023-07-08T04:18:55;15.00;1.00
38938;DHT22;24727;51.974;20.868;2023-07-08T04:21:23;15.20;1.00
38938;DHT22;24727;51.974;20.868;2023-07-08T04:23:51;15.50;1.00
38938;DHT22;24727;51.974;20.868;2023-07-08T04:26:17;15.60;1.00
38938;DHT22;24727;51.974;20.868;2023-07-08T04:28:45;15.80;1.00
38938;DHT22;24727;51.974;20.868;2023-07-08T04:31:11;15.90;1.00
38938;DHT22;24727;51.974;20.868;2023-07-08T04:33:37;16.10;1.00
38938;DHT22;24727;51.974;20.868;2023-07-08T04:36:08;16.30;1.00
38938;DHT22;24727;51.974;20.868;2023-07-08T04:38:36;16.60;1.00
38938;DHT22;24727;51.974;20.868;2023-07-08T04:41:02;16.80;1.00
38938;DHT22;24727;51.974;20.868;2023-07-08T04:43:28;17.00;1.00
38938;DHT22;24727;51.974;20.868;2023-07-08T04:45:54;17.20;1.00
38938;DHT22;24727;51.974;20.868;2023-07-08T04:48:22;17.40;1.00
38938;DHT22;24727;51.974;20.868;2023-07-08T04:50:51;17.70;1.00
38938;DHT22;24727;51.974;20.868;2023-07-08T04:53:17;17.90;1.00
38938;DHT22;24727;51.974;20.868;2023-07-08T04:55:50;18.10;1.00
38938;DHT22;24727;51.974;20.868;2023-07-08T04:58:17;18.30;1.00
38938;DHT22;24727;51.974;20.868;2023-07-08T05:00:43;18.50;1.00
38938;DHT22;24727;51.974;20.868;2023-07-08T05:03:09;18.50;1.00
38938;DHT22;24727;51.974;20.868;2023-07-08T05:05:35;18.60;1.00
38938;DHT22;24727;51.974;20.868;2023-07-08T05:08:01;18.90;1.00
38938;DHT22;24727;51.974;20.868;2023-07-08T05:10:27;19.10;1.00
38938;DHT22;24727;51.974;20.868;2023-07-08T05:12:53;19.40;1.00
38938;DHT22;24727;51.974;20.868;2023-07-08T05:15:19;19.60;1.00
38938;DHT22;24727;51.974;20.868;2023-07-08T05:17:45;19.80;1.00
38938;DHT22;24727;51.974;20.868;2023-07-08T05:20:14;19.90;1.00
38938;DHT22;24727;51.974;20.868;2023-07-08T05:22:41;20.10;1.00
38938;DHT22;24727;51.974;20.868;2023-07-08T05:25:09;20.30;1.00
38938;DHT22;24727;51.974;20.868;2023-07-08T05:27:35;20.60;1.00
38938;DHT22;24727;51.974;20.868;2023-07-08T05:30:03;20.80;1.00
38938;DHT22;24727;51.974;20.868;2023-07-08T05:32:29;21.00;1.00
38938;DHT22;24727;51.974;20.868;2023-07-08T05:34:55;21.30;1.00
38938;DHT22;24727;51.974;20.868;2023-07-08T05:37:21;21.60;1.00
38938;DHT22;24727;51.974;20.868;2023-07-08T05:39:54;21.70;1.00
38938;DHT22;24727;51.974;20.868;2023-07-08T05:42:21;22.00;1.00
38938;DHT22;24727;51.974;20.868;2023-07-08T05:44:48;22.30;1.00
38938;DHT22;24727;51.974;20.868;2023-07-08T05:47:15;22.30;1.00
38938;DHT22;24727;51.974;20.868;2023-07-08T05:49:41;22.70;1.00
38938;DHT22;24727;51.974;20.868;2023-07-08T05:52:07;23.10;1.00
38938;DHT22;24727;51.974;20.868;2023-07-08T05:54:40;23.30;1.00
38938;DHT22;24727;51.974;20.868;2023-07-08T05:57:08;23.60;1.00
38938;DHT22;24727;51.974;20.868;2023-07-08T05:59:36;23.80;1.00
38938;DHT22;24727;51.974;20.868;2023-07-08T06:02:05;24.20;1.00
38938;DHT22;24727;51.974;20.868;2023-07-08T06:04:31;24.50;1.00
38938;DHT22;24727;51.974;20.868;2023-07-08T06:06:57;24.40;1.00
38938;DHT22;24727;51.974;20.868;2023-07-08T06:09:24;24.60;1.00
38938;DHT22;24727;51.974;20.868;2023-07-08T06:11:50;24.90;1.00
38938;DHT22;24727;51.974;20.868;2023-07-08T06:14:16;25.00;1.00
38938;DHT22;24727;51.974;20.868;2023-07-08T06:16:42;25.30;1.00
38938;DHT22;24727;51.974;20.868;2023-07-08T06:19:09;25.10;1.00
38938;DHT22;24727;51.974;20.868;2023-07-08T06:21:35;25.20;1.00
38938;DHT22;24727;51.974;20.868;2023-07-08T06:24:01;25.30;1.00
38938;DHT22;24727;51.974;20.868;2023-07-08T06:26:27;25.00;1.00
38938;DHT22;24727;51.974;20.868;2023-07-08T06:28:53;24.70;1.00
38938;DHT22;24727;51.974;20.868;2023-07-08T06:31:20;24.90;1.00
38938;DHT22;24727;51.974;20.868;2023-07-08T06:33:46;24.90;1.00
38938;DHT22;24727;51.974;20.868;2023-07-08T06:36:16;25.30;1.00
38938;DHT22;24727;51.974;20.868;2023-07-08T06:38:43;25.60;1.00
38938;DHT22;24727;51.974;20.868;2023-07-08T06:41:09;26.20;1.00
38938;DHT22;24727;51.974;20.868;2023-07-08T06:43:35;26.40;1.00
38938;DHT22;24727;51.974;20.868;2023-07-08T06:46:01;26.60;1.00
38938;DHT22;24727;51.974;20.868;2023-07-08T06:48:27;26.90;1.00
38938;DHT22;24727;51.974;20.868;2023-07-08T06:50:54;27.20;1.00
38938;DHT22;24727;51.974;20.868;2023-07-08T06:53:22;26.80;1.00
38938;DHT22;24727;51.974;20.868;2023-07-08T06:55:49;26.90;1.00
38938;DHT22;24727;51.974;20.868;2023-07-08T06:58:15;27.40;1.00
38938;DHT22;24727;51.974;20.868;2023-07-08T07:00:45;28.00;1.00
38938;DHT22;24727;51.974;20.868;2023-07-08T07:03:12;28.50;1.00
38938;DHT22;24727;51.974;20.868;2023-07-08T07:05:39;28.70;1.00
38938;DHT22;24727;51.974;20.868;2023-07-08T07:08:06;28.00;1.00
38938;DHT22;24727;51.974;20.868;2023-07-08T07:10:33;28.00;1.00
38938;DHT22;24727;51.974;20.868;2023-07-08T07:13:05;27.90;1.00
38938;DHT22;24727;51.974;20.868;2023-07-08T07:15:31;27.90;1.00
38938;DHT22;24727;51.974;20.868;2023-07-08T07:17:58;28.30;1.00
38938;DHT22;24727;51.974;20.868;2023-07-08T07:20:25;28.60;1.00
38938;DHT22;24727;51.974;20.868;2023-07-08T07:22:54;28.80;1.00
38938;DHT22;24727;51.974;20.868;2023-07-08T07:25:20;28.50;1.00
38938;DHT22;24727;51.974;20.868;2023-07-08T07:27:49;28.20;1.00
38938;DHT22;24727;51.974;20.868;2023-07-08T07:30:15;27.50;1.00
38938;DHT22;24727;51.974;20.868;2023-07-08T07:32:42;27.40;1.00
38938;DHT22;24727;51.974;20.868;2023-07-08T07:35:10;27.30;1.00
38938;DHT22;24727;51.974;20.868;2023-07-08T07:37:39;27.60;1.00
38938;DHT22;24727;51.974;20.868;2023-07-08T07:40:08;27.30;1.00
38938;DHT22;24727;51.974;20.868;2023-07-08T07:42:39;27.10;1.00
38938;DHT22;24727;51.974;20.868;2023-07-08T07:45:06;27.00;1.00
38938;DHT22;24727;51.974;20.868;2023-07-08T07:47:33;27.30;1.00
38938;DHT22;24727;51.974;20.868;2023-07-08T07:50:00;27.30;1.00
38938;DHT22;24727;51.974;20.868;2023-07-08T07:52:26;27.50;1.00
38938;DHT22;24727;51.974;20.868;2023-07-08T07:54:54;27.20;1.00
38938;DHT22;24727;51.974;20.868;2023-07-08T07:57:24;27.30;1.00
38938;DHT22;24727;51.974;20.868;2023-07-08T07:59:51;27.90;1.00
38938;DHT22;24727;51.974;20.868;2023-07-08T08:02:18;28.00;1.00
38938;DHT22;24727;51.974;20.868;2023-07-08T08:04:44;28.40;1.00
38938;DHT22;24727;51.974;20.868;2023-07-08T08:07:10;28.40;1.00
38938;DHT22;24727;51.974;20.868;2023-07-08T08:09:37;27.60;1.00
38938;DHT22;24727;51.974;20.868;2023-07-08T08:12:07;27.90;1.00
38938;DHT22;24727;51.974;20.868;2023-07-08T08:14:33;27.40;1.00
38938;DHT22;24727;51.974;20.868;2023-07-08T08:16:59;27.50;1.00
38938;DHT22;24727;51.974;20.868;2023-07-08T08:19:25;27.80;1.00
38938;DHT22;24727;51.974;20.868;2023-07-08T08:21:51;28.40;1.00
38938;DHT22;24727;51.974;20.868;2023-07-08T08:24:17;27.50;1.00
38938;DHT22;24727;51.974;20.868;2023-07-08T08:26:43;27.90;1.00
38938;DHT22;24727;51.974;20.868;2023-07-08T08:29:09;28.10;1.00
38938;DHT22;24727;51.974;20.868;2023-07-08T08:31:35;28.00;1.00
38938;DHT22;24727;51.974;20.868;2023-07-08T08:34:01;28.00;1.00
38938;DHT22;24727;51.974;20.868;2023-07-08T08:36:28;27.70;1.00
38938;DHT22;24727;51.974;20.868;2023-07-08T08:38:54;27.70;1.00
38938;DHT22;24727;51.974;20.868;2023-07-08T08:41:30;27.30;1.00
38938;DHT22;24727;51.974;20.868;2023-07-08T08:43:56;27.10;1.00
38938;DHT22;24727;51.974;20.868;2023-07-08T08:46:34;27.30;1.00
38938;DHT22;24727;51.974;20.868;2023-07-08T08:51:49;27.50;1.00
38938;DHT22;24727;51.974;20.868;2023-07-08T08:54:16;29.50;1.00
38938;DHT22;24727;51.974;20.868;2023-07-08T08:59:36;31.30;1.00
38938;DHT22;24727;51.974;20.868;2023-07-08T09:02:27;30.00;1.00
38938;DHT22;24727;51.974;20.868;2023-07-08T09:05:01;28.70;1.00
38938;DHT22;24727;51.974;20.868;2023-07-08T09:07:28;28.10;1.00
38938;DHT22;24727;51.974;20.868;2023-07-08T09:12:26;28.50;1.00
38938;DHT22;24727;51.974;20.868;2023-07-08T09:14:55;28.20;1.00
38938;DHT22;24727;51.974;20.868;2023-07-08T09:17:32;27.80;1.00
38938;DHT22;24727;51.974;20.868;2023-07-08T09:22:40;27.70;1.00
38938;DHT22;24727;51.974;20.868;2023-07-08T09:25:31;27.90;1.00
38938;DHT22;24727;51.974;20.868;2023-07-08T09:27:58;28.40;1.00
38938;DHT22;24727;51.974;20.868;2023-07-08T09:30:24;28.80;1.00
38938;DHT22;24727;51.974;20.868;2023-07-08T09:32:51;29.00;1.00
38938;DHT22;24727;51.974;20.868;2023-07-08T09:35:29;29.40;1.00
38938;DHT22;24727;51.974;20.868;2023-07-08T09:38:08;30.60;1.00
38938;DHT22;24727;51.974;20.868;2023-07-08T09:40:36;30.80;1.00
38938;DHT22;24727;51.974;20.868;2023-07-08T09:43:23;30.70;1.00
38938;DHT22;24727;51.974;20.868;2023-07-08T09:45:49;30.60;1.00
38938;DHT22;24727;51.974;20.868;2023-07-08T09:48:34;30.00;1.00
38938;DHT22;24727;51.974;20.868;2023-07-08T09:51:00;28.30;1.00
38938;DHT22;24727;51.974;20.868;2023-07-08T09:53:27;29.20;1.00
38938;DHT22;24727;51.974;20.868;2023-07-08T09:55:56;30.90;1.00
38938;DHT22;24727;51.974;20.868;2023-07-08T10:01:10;31.70;1.00
38938;DHT22;24727;51.974;20.868;2023-07-08T10:03:37;29.10;1.00
38938;DHT22;24727;51.974;20.868;2023-07-08T10:06:22;28.10;1.00
38938;DHT22;24727;51.974;20.868;2023-07-08T10:08:48;28.10;1.00
38938;DHT22;24727;51.974;20.868;2023-07-08T10:13:48;29.10;1.00
38938;DHT22;24727;51.974;20.868;2023-07-08T10:16:30;30.70;1.00
38938;DHT22;24727;51.974;20.868;2023-07-08T10:18:58;32.10;1.00
38938;DHT22;24727;51.974;20.868;2023-07-08T10:21:39;33.00;1.00
38938;DHT22;24727;51.974;20.868;2023-07-08T10:24:22;34.20;1.00
38938;DHT22;24727;51.974;20.868;2023-07-08T10:26:57;31.80;1.00
38938;DHT22;24727;51.974;20.868;2023-07-08T10:40:47;29.20;1.00
38938;DHT22;24727;51.974;20.868;2023-07-08T10:43:53;28.90;1.00
38938;DHT22;24727;51.974;20.868;2023-07-08T10:46:45;29.50;1.00
38938;DHT22;24727;51.974;20.868;2023-07-08T10:49:47;29.50;1.00
38938;DHT22;24727;51.974;20.868;2023-07-08T10:52:42;28.00;1.00
38938;DHT22;24727;51.974;20.868;2023-07-08T10:55:29;27.50;1.00
38938;DHT22;24727;51.974;20.868;2023-07-08T11:06:41;27.30;1.00
38938;DHT22;24727;51.974;20.868;2023-07-08T11:09:13;28.80;1.00
38938;DHT22;24727;51.974;20.868;2023-07-08T11:11:56;29.50;1.00
38938;DHT22;24727;51.974;20.868;2023-07-08T11:14:47;29.20;1.00
38938;DHT22;24727;51.974;20.868;2023-07-08T11:17:24;28.00;1.00
38938;DHT22;24727;51.974;20.868;2023-07-08T11:20:00;27.50;1.00
38938;DHT22;24727;51.974;20.868;2023-07-08T11:22:30;27.10;1.00
38938;DHT22;24727;51.974;20.868;2023-07-08T11:25:01;27.20;1.00
38938;DHT22;24727;51.974;20.868;2023-07-08T11:27:32;27.30;1.00
38938;DHT22;24727;51.974;20.868;2023-07-08T11:30:05;27.20;1.00
38938;DHT22;24727;51.974;20.868;2023-07-08T11:32:33;27.00;1.00
38938;DHT22;24727;51.974;20.868;2023-07-08T11:35:02;27.00;1.00
38938;DHT22;24727;51.974;20.868;2023-07-08T11:37:30;27.10;1.00
38938;DHT22;24727;51.974;20.868;2023-07-08T11:40:17;27.50;1.00
38938;DHT22;24727;51.974;20.868;2023-07-08T11:42:48;27.70;1.00
38938;DHT22;24727;51.974;20.868;2023-07-08T11:47:45;28.50;1.00
38938;DHT22;24727;51.974;20.868;2023-07-08T11:50:36;29.00;1.00
38938;DHT22;24727;51.974;20.868;2023-07-08T11:53:08;28.70;1.00
38938;DHT22;24727;51.974;20.868;2023-07-08T11:55:43;29.00;1.00
38938;DHT22;24727;51.974;20.868;2023-07-08T11:58:31;29.00;1.00
38938;DHT22;24727;51.974;20.868;2023-07-08T12:03:48;28.90;1.00
38938;DHT22;24727;51.974;20.868;2023-07-08T12:08:57;29.30;1.00
38938;DHT22;24727;51.974;20.868;2023-07-08T12:11:31;30.40;1.00
38938;DHT22;24727;51.974;20.868;2023-07-08T12:14:02;30.00;1.00
38938;DHT22;24727;51.974;20.868;2023-07-08T12:16:30;29.10;1.00
38938;DHT22;24727;51.974;20.868;2023-07-08T12:19:00;29.20;1.00
38938;DHT22;24727;51.974;20.868;2023-07-08T12:21:27;29.30;1.00
38938;DHT22;24727;51.974;20.868;2023-07-08T12:23:54;31.10;1.00
38938;DHT22;24727;51.974;20.868;2023-07-08T12:26:22;32.40;1.00
38938;DHT22;24727;51.974;20.868;2023-07-08T12:28:51;32.60;1.00
38938;DHT22;24727;51.974;20.868;2023-07-08T12:31:22;30.60;1.00
38938;DHT22;24727;51.974;20.868;2023-07-08T12:33:49;29.30;1.00
38938;DHT22;24727;51.974;20.868;2023-07-08T12:36:23;30.10;1.00
38938;DHT22;24727;51.974;20.868;2023-07-08T12:38:54;29.80;1.00
38938;DHT22;24727;51.974;20.868;2023-07-08T12:41:25;30.80;1.00
38938;DHT22;24727;51.974;20.868;2023-07-08T12:43:52;31.90;1.00
38938;DHT22;24727;51.974;20.868;2023-07-08T12:46:21;31.40;1.00
38938;DHT22;24727;51.974;20.868;2023-07-08T12:48:47;31.40;1.00
38938;DHT22;24727;51.974;20.868;2023-07-08T12:51:16;31.40;1.00
38938;DHT22;24727;51.974;20.868;2023-07-08T12:53:43;32.90;1.00
38938;DHT22;24727;51.974;20.868;2023-07-08T12:56:10;34.10;1.00
38938;DHT22;24727;51.974;20.868;2023-07-08T12:58:57;34.90;1.00
38938;DHT22;24727;51.974;20.868;2023-07-08T13:01:26;35.20;1.00
38938;DHT22;24727;51.974;20.868;2023-07-08T13:03:58;35.90;1.00
38938;DHT22;24727;51.974;20.868;2023-07-08T13:06:29;36.00;1.00
38938;DHT22;24727;51.974;20.868;2023-07-08T13:11:53;34.10;1.00
38938;DHT22;24727;51.974;20.868;2023-07-08T13:14:22;33.70;1.00
38938;DHT22;24727;51.974;20.868;2023-07-08T13:16:49;32.30;1.00
38938;DHT22;24727;51.974;20.868;2023-07-08T13:19:15;31.80;1.00
38938;DHT22;24727;51.974;20.868;2023-07-08T13:21:42;30.40;1.00
38938;DHT22;24727;51.974;20.868;2023-07-08T13:24:12;29.90;1.00
38938;DHT22;24727;51.974;20.868;2023-07-08T13:26:38;28.70;1.00
38938;DHT22;24727;51.974;20.868;2023-07-08T13:29:17;28.30;1.00
38938;DHT22;24727;51.974;20.868;2023-07-08T13:32:09;27.90;1.00
38938;DHT22;24727;51.974;20.868;2023-07-08T13:34:35;27.70;1.00
38938;DHT22;24727;51.974;20.868;2023-07-08T13:37:01;28.30;1.00
38938;DHT22;24727;51.974;20.868;2023-07-08T13:39:31;29.60;1.00
38938;DHT22;24727;51.974;20.868;2023-07-08T13:41:59;30.80;1.00
38938;DHT22;24727;51.974;20.868;2023-07-08T13:44:27;31.70;1.00
38938;DHT22;24727;51.974;20.868;2023-07-08T13:46:56;32.70;1.00
38938;DHT22;24727;51.974;20.868;2023-07-08T13:49:45;33.10;1.00
38938;DHT22;24727;51.974;20.868;2023-07-08T13:54:54;32.10;1.00
38938;DHT22;24727;51.974;20.868;2023-07-08T13:57:27;31.10;1.00
38938;DHT22;24727;51.974;20.868;2023-07-08T13:59:54;31.40;1.00
38938;DHT22;24727;51.974;20.868;2023-07-08T14:02:29;32.60;1.00
38938;DHT22;24727;51.974;20.868;2023-07-08T14:04:58;31.60;1.00
38938;DHT22;24727;51.974;20.868;2023-07-08T14:07:30;32.00;1.00
38938;DHT22;24727;51.974;20.868;2023-07-08T14:09:57;31.40;1.00
38938;DHT22;24727;51.974;20.868;2023-07-08T14:12:23;30.00;1.00
38938;DHT22;24727;51.974;20.868;2023-07-08T14:14:49;30.10;1.00
38938;DHT22;24727;51.974;20.868;2023-07-08T14:17:23;29.60;1.00
38938;DHT22;24727;51.974;20.868;2023-07-08T14:19:51;28.70;1.00
38938;DHT22;24727;51.974;20.868;2023-07-08T14:22:29;28.30;1.00
38938;DHT22;24727;51.974;20.868;2023-07-08T14:25:04;28.00;1.00
38938;DHT22;24727;51.974;20.868;2023-07-08T14:27:31;28.10;1.00
38938;DHT22;24727;51.974;20.868;2023-07-08T14:29:57;28.40;1.00
38938;DHT22;24727;51.974;20.868;2023-07-08T14:32:29;28.90;1.00
38938;DHT22;24727;51.974;20.868;2023-07-08T14:35:02;29.20;1.00
38938;DHT22;24727;51.974;20.868;2023-07-08T14:37:35;29.70;1.00
38938;DHT22;24727;51.974;20.868;2023-07-08T14:40:10;29.40;1.00
38938;DHT22;24727;51.974;20.868;2023-07-08T14:42:38;29.50;1.00
38938;DHT22;24727;51.974;20.868;2023-07-08T14:45:08;28.80;1.00
38938;DHT22;24727;51.974;20.868;2023-07-08T14:47:34;29.10;1.00
38938;DHT22;24727;51.974;20.868;2023-07-08T14:50:00;28.60;1.00
38938;DHT22;24727;51.974;20.868;2023-07-08T14:52:37;28.40;1.00
38938;DHT22;24727;51.974;20.868;2023-07-08T14:55:04;28.30;1.00
38938;DHT22;24727;51.974;20.868;2023-07-08T14:57:39;28.30;1.00
38938;DHT22;24727;51.974;20.868;2023-07-08T15:00:11;29.00;1.00
38938;DHT22;24727;51.974;20.868;2023-07-08T15:02:41;29.80;1.00
38938;DHT22;24727;51.974;20.868;2023-07-08T15:05:22;30.20;1.00
38938;DHT22;24727;51.974;20.868;2023-07-08T15:07:52;29.50;1.00
38938;DHT22;24727;51.974;20.868;2023-07-08T15:10:21;28.70;1.00
38938;DHT22;24727;51.974;20.868;2023-07-08T15:12:48;28.20;1.00
38938;DHT22;24727;51.974;20.868;2023-07-08T15:15:21;27.80;1.00
38938;DHT22;24727;51.974;20.868;2023-07-08T15:17:51;27.80;1.00
38938;DHT22;24727;51.974;20.868;2023-07-08T15:20:18;27.60;1.00
38938;DHT22;24727;51.974;20.868;2023-07-08T15:22:45;27.70;1.00
38938;DHT22;24727;51.974;20.868;2023-07-08T15:25:14;27.50;1.00
38938;DHT22;24727;51.974;20.868;2023-07-08T15:27:47;27.50;1.00
38938;DHT22;24727;51.974;20.868;2023-07-08T15:30:22;27.50;1.00
38938;DHT22;24727;51.974;20.868;2023-07-08T15:32:49;27.70;1.00
38938;DHT22;24727;51.974;20.868;2023-07-08T15:35:19;28.10;1.00
38938;DHT22;24727;51.974;20.868;2023-07-08T15:37:46;28.80;1.00
38938;DHT22;24727;51.974;20.868;2023-07-08T15:40:18;29.00;1.00
38938;DHT22;24727;51.974;20.868;2023-07-08T15:42:50;29.20;1.00
38938;DHT22;24727;51.974;20.868;2023-07-08T15:45:21;28.70;1.00
38938;DHT22;24727;51.974;20.868;2023-07-08T15:47:47;28.80;1.00
38938;DHT22;24727;51.974;20.868;2023-07-08T15:50:16;29.30;1.00
38938;DHT22;24727;51.974;20.868;2023-07-08T15:52:43;29.50;1.00
38938;DHT22;24727;51.974;20.868;2023-07-08T15:55:11;29.50;1.00
38938;DHT22;24727;51.974;20.868;2023-07-08T15:57:52;29.60;1.00
38938;DHT22;24727;51.974;20.868;2023-07-08T16:00:27;29.80;1.00
38938;DHT22;24727;51.974;20.868;2023-07-08T16:03:01;29.90;1.00
38938;DHT22;24727;51.974;20.868;2023-07-08T16:05:31;29.60;1.00
38938;DHT22;24727;51.974;20.868;2023-07-08T16:07:59;29.90;1.00
38938;DHT22;24727;51.974;20.868;2023-07-08T16:10:25;30.30;1.00
38938;DHT22;24727;51.974;20.868;2023-07-08T16:12:53;30.60;1.00
38938;DHT22;24727;51.974;20.868;2023-07-08T16:15:35;30.30;1.00
38938;DHT22;24727;51.974;20.868;2023-07-08T16:18:05;29.90;1.00
38938;DHT22;24727;51.974;20.868;2023-07-08T16:20:34;30.20;1.00
38938;DHT22;24727;51.974;20.868;2023-07-08T16:23:02;29.80;1.00
38938;DHT22;24727;51.974;20.868;2023-07-08T16:25:38;29.10;1.00
38938;DHT22;24727;51.974;20.868;2023-07-08T16:28:05;28.70;1.00
38938;DHT22;24727;51.974;20.868;2023-07-08T16:30:32;28.40;1.00
38938;DHT22;24727;51.974;20.868;2023-07-08T16:32:58;27.90;1.00
38938;DHT22;24727;51.974;20.868;2023-07-08T16:35:24;27.80;1.00
38938;DHT22;24727;51.974;20.868;2023-07-08T16:37:52;27.90;1.00
38938;DHT22;24727;51.974;20.868;2023-07-08T16:40:22;27.70;1.00